Time;durP1;ratioP1;P1;durP2;ratioP2;P2;SDS_P1;SDS_P2;PMS_P1;PMS_P2;Temp;Humidity;BMP_temperature;BMP_pressure;BME280_temperature;BME280_humidity;BME280_pressure;Samples;Min_cycle;Max_cycle;Signal;HPM_P1;HPM_P2
2023/12/19 00:01:49;;;;;;;;;;;4.10;99.90;;;;;;2625598;54;19954;-78
2023/12/19 00:04:19;;;;;;;;;;;4.20;99.90;;;;;;2625440;47;19953;-79
2023/12/19 00:06:49;;;;;;;;;;;4.20;99.90;;;;;;2624024;54;19953;-80
2023/12/19 00:09:21;;;;;;;;;;;4.30;99.90;;;;;;2625895;31;20429;-79
2023/12/19 00:11:51;;;;;;;;;;;4.30;99.90;;;;;;2626457;54;19966;-79
2023/12/19 00:14:21;;;;;;;;;;;4.30;99.90;;;;;;2624906;47;19950;-80
2023/12/19 00:16:51;;;;;;;;;;;4.30;99.90;;;;;;2623963;47;19958;-81
2023/12/19 00:19:21;;;;;;;;;;;4.30;99.90;;;;;;2623600;47;19942;-78
2023/12/19 00:21:51;;;;;;;;;;;4.30;99.90;;;;;;2623431;54;19945;-79
2023/12/19 00:24:23;;;;;;;;;;;4.30;99.90;;;;;;2624532;39;20497;-78
2023/12/19 00:26:53;;;;;;;;;;;4.30;99.90;;;;;;2623614;47;19942;-79
2023/12/19 00:29:23;;;;;;;;;;;4.30;99.90;;;;;;2623456;54;19939;-80
2023/12/19 00:31:54;;;;;;;;;;;4.20;99.90;;;;;;2624198;47;19946;-79
2023/12/19 00:34:24;;;;;;;;;;;4.30;99.90;;;;;;2624002;47;20119;-79
2023/12/19 00:36:56;;;;;;;;;;;4.10;99.90;;;;;;2623811;54;20018;-79
2023/12/19 00:39:29;;;;;;;;;;;4.10;99.90;;;;;;2623536;47;19946;-78
2023/12/19 00:41:59;;;;;;;;;;;4.20;99.90;;;;;;2623980;47;19946;-79
2023/12/19 00:44:29;;;;;;;;;;;4.20;99.90;;;;;;2629237;54;19949;-80
2023/12/19 00:46:59;;;;;;;;;;;4.20;99.90;;;;;;2626049;54;19939;-79
2023/12/19 00:49:29;;;;;;;;;;;4.20;99.90;;;;;;2630594;39;20470;-79
2023/12/19 00:51:59;;;;;;;;;;;4.20;99.90;;;;;;2624179;47;20513;-79
2023/12/19 00:54:31;;;;;;;;;;;4.30;99.90;;;;;;2623838;47;19946;-80
2023/12/19 00:57:01;;;;;;;;;;;4.60;99.90;;;;;;2623769;47;19942;-78
2023/12/19 00:59:31;;;;;;;;;;;4.30;99.90;;;;;;2623377;47;19971;-80
2023/12/19 01:02:00;;;;;;;;;;;5.00;99.90;;;;;;2623595;54;19954;-80
2023/12/19 01:04:30;;;;;;;;;;;4.30;99.90;;;;;;2623947;54;19987;-79
2023/12/19 01:07:01;;;;;;;;;;;4.30;99.90;;;;;;2623763;54;19950;-81
2023/12/19 01:09:33;;;;;;;;;;;4.30;99.90;;;;;;2627120;54;19986;-80
2023/12/19 01:12:03;;;;;;;;;;;4.30;99.90;;;;;;2626800;47;19953;-79
2023/12/19 01:14:33;;;;;;;;;;;4.40;99.90;;;;;;2625240;54;19990;-79
2023/12/19 01:17:03;;;;;;;;;;;3.30;99.90;;;;;;2625288;47;19963;-79
2023/12/19 01:19:33;;;;;;;;;;;4.30;99.90;;;;;;2627219;39;20360;-79
2023/12/19 01:22:03;;;;;;;;;;;4.30;99.90;;;;;;2626888;47;19978;-80
2023/12/19 01:24:36;;;;;;;;;;;4.30;99.90;;;;;;2625483;47;19938;-80
2023/12/19 01:27:07;;;;;;;;;;;4.20;99.90;;;;;;2625720;46;19957;-78
2023/12/19 01:29:36;;;;;;;;;;;4.20;99.90;;;;;;2626188;47;19986;-79
2023/12/19 01:32:07;;;;;;;;;;;4.10;99.90;;;;;;2625866;47;20473;-80
2023/12/19 01:34:36;;;;;;;;;;;4.20;99.90;;;;;;2626644;54;19951;-82
2023/12/19 01:37:07;;;;;;;;;;;4.10;99.90;;;;;;2626100;47;19951;-79
2023/12/19 01:39:39;;;;;;;;;;;5.10;99.90;;;;;;2626669;47;19954;-80
2023/12/19 01:42:09;;;;;;;;;;;4.10;99.90;;;;;;2626641;47;19957;-81
2023/12/19 01:44:39;;;;;;;;;;;4.10;99.90;;;;;;2626882;54;19947;-81
2023/12/19 01:47:09;;;;;;;;;;;4.10;99.90;;;;;;2627314;54;19938;-80
2023/12/19 01:49:39;;;;;;;;;;;4.20;99.90;;;;;;2633047;39;20487;-81
2023/12/19 01:52:09;;;;;;;;;;;4.20;99.90;;;;;;2628281;47;19938;-80
2023/12/19 01:54:42;;;;;;;;;;;4.40;99.90;;;;;;2627464;54;19922;-80
2023/12/19 01:57:12;;;;;;;;;;;3.90;99.90;;;;;;2626430;54;19950;-80
2023/12/19 01:59:41;;;;;;;;;;;3.90;99.90;;;;;;2625761;54;19947;-80
2023/12/19 02:02:11;;;;;;;;;;;3.80;99.90;;;;;;2626564;47;19953;-79
2023/12/19 02:04:41;;;;;;;;;;;3.80;99.90;;;;;;2627127;51;19971;-81
2023/12/19 02:07:11;;;;;;;;;;;4.40;99.90;;;;;;2627350;54;19958;-81
2023/12/19 02:09:44;;;;;;;;;;;3.70;99.90;;;;;;2627249;47;19946;-79
2023/12/19 02:12:14;;;;;;;;;;;3.80;99.90;;;;;;2627024;47;19973;-81
2023/12/19 02:14:44;;;;;;;;;;;4.50;99.90;;;;;;2627068;54;19972;-79
2023/12/19 02:17:16;;;;;;;;;;;6.10;99.90;;;;;;2626632;54;19950;-80
2023/12/19 02:19:48;;;;;;;;;;;3.80;99.90;;;;;;2627131;54;19986;-80
2023/12/19 02:22:18;;;;;;;;;;;3.80;99.90;;;;;;2630015;39;20099;-80
2023/12/19 02:24:50;;;;;;;;;;;3.80;99.90;;;;;;2628600;47;19974;-79
2023/12/19 02:27:22;;;;;;;;;;;4.70;99.90;;;;;;2627840;54;19951;-81
2023/12/19 02:29:52;;;;;;;;;;;3.80;99.90;;;;;;2626878;54;20453;-79
2023/12/19 02:32:21;;;;;;;;;;;3.80;99.90;;;;;;2626664;47;19971;-79
2023/12/19 02:34:51;;;;;;;;;;;3.70;99.90;;;;;;2628600;39;20334;-80
2023/12/19 02:37:21;;;;;;;;;;;5.10;99.90;;;;;;2626298;47;19958;-79
2023/12/19 02:39:54;;;;;;;;;;;3.70;99.90;;;;;;2626884;47;19947;-80
2023/12/19 02:42:24;;;;;;;;;;;3.80;99.90;;;;;;2629321;54;19951;-81
2023/12/19 02:44:54;;;;;;;;;;;3.70;99.90;;;;;;2630221;54;19950;-78
2023/12/19 02:47:23;;;;;;;;;;;3.70;99.90;;;;;;2625423;54;19962;-78
2023/12/19 02:49:53;;;;;;;;;;;3.70;99.90;;;;;;2629168;47;19957;-82
2023/12/19 02:52:23;;;;;;;;;;;3.70;99.90;;;;;;2627454;47;19969;-80
2023/12/19 02:54:55;;;;;;;;;;;4.50;99.90;;;;;;2627162;46;19962;-80
2023/12/19 02:57:25;;;;;;;;;;;3.80;99.90;;;;;;2625466;47;20038;-80
2023/12/19 02:59:55;;;;;;;;;;;3.80;99.90;;;;;;2626230;47;19998;-81
2023/12/19 03:02:28;;;;;;;;;;;3.70;99.90;;;;;;2627919;47;19946;-81
2023/12/19 03:04:58;;;;;;;;;;;3.80;99.90;;;;;;2627593;47;19954;-80
2023/12/19 03:07:27;;;;;;;;;;;3.80;99.90;;;;;;2627009;54;19950;-80
2023/12/19 03:10:05;;;;;;;;;;;3.90;99.90;;;;;;2627130;54;20468;-79
2023/12/19 03:12:35;;;;;;;;;;;3.90;99.90;;;;;;2625570;54;19963;-79
2023/12/19 03:15:06;;;;;;;;;;;3.90;99.90;;;;;;2625346;47;19938;-79
2023/12/19 03:17:36;;;;;;;;;;;3.90;99.90;;;;;;2626086;47;19946;-79
2023/12/19 03:20:07;;;;;;;;;;;3.90;99.90;;;;;;2626328;54;19945;-78
2023/12/19 03:22:37;;;;;;;;;;;3.80;99.90;;;;;;2625561;47;19947;-79
2023/12/19 03:25:10;;;;;;;;;;;3.90;99.90;;;;;;2624918;54;19958;-79
2023/12/19 03:27:40;;;;;;;;;;;3.90;99.90;;;;;;2625034;54;19946;-78
2023/12/19 03:30:10;;;;;;;;;;;4.00;99.90;;;;;;2625947;54;19957;-80
2023/12/19 03:32:40;;;;;;;;;;;3.90;99.90;;;;;;2628432;54;19942;-80
2023/12/19 03:35:10;;;;;;;;;;;4.00;99.90;;;;;;2627199;47;19938;-79
2023/12/19 03:37:40;;;;;;;;;;;4.00;99.90;;;;;;2626993;47;19946;-79
2023/12/19 03:40:13;;;;;;;;;;;4.00;99.90;;;;;;2626593;54;19947;-80
2023/12/19 03:42:43;;;;;;;;;;;4.00;99.90;;;;;;2625332;54;19946;-80
2023/12/19 03:45:13;;;;;;;;;;;4.00;99.90;;;;;;2625947;47;19971;-77
2023/12/19 03:47:43;;;;;;;;;;;4.80;99.90;;;;;;2625331;54;19951;-78
2023/12/19 03:50:13;;;;;;;;;;;4.60;99.90;;;;;;2628731;54;19943;-80
2023/12/19 03:52:43;;;;;;;;;;;4.00;99.90;;;;;;2627489;54;19951;-81
2023/12/19 03:55:16;;;;;;;;;;;4.00;99.90;;;;;;2626395;47;19947;-81
2023/12/19 03:57:46;;;;;;;;;;;4.00;99.90;;;;;;2626592;47;19947;-80
2023/12/19 04:00:16;;;;;;;;;;;4.00;99.90;;;;;;2629382;54;19943;-80
2023/12/19 04:02:46;;;;;;;;;;;3.90;99.90;;;;;;2627877;54;19946;-79
2023/12/19 04:05:16;;;;;;;;;;;3.90;99.90;;;;;;2626932;54;19950;-79
2023/12/19 04:07:46;;;;;;;;;;;3.90;99.90;;;;;;2627120;47;19939;-79
2023/12/19 04:10:18;;;;;;;;;;;4.70;99.90;;;;;;2627384;47;20455;-79
2023/12/19 04:12:48;;;;;;;;;;;4.00;99.90;;;;;;2627861;54;19951;-81
2023/12/19 04:15:18;;;;;;;;;;;4.00;99.90;;;;;;2626709;47;19950;-79
2023/12/19 04:17:48;;;;;;;;;;;4.00;99.90;;;;;;2626818;39;20373;-79
2023/12/19 04:20:18;;;;;;;;;;;4.00;99.90;;;;;;2626790;54;19999;-80
2023/12/19 04:22:48;;;;;;;;;;;3.90;99.90;;;;;;2626880;47;19947;-80
2023/12/19 04:25:20;;;;;;;;;;;4.00;99.90;;;;;;2626282;47;19986;-80
2023/12/19 04:27:50;;;;;;;;;;;3.10;99.90;;;;;;2626611;54;20439;-79
2023/12/19 04:30:20;;;;;;;;;;;4.00;99.90;;;;;;2628259;47;19946;-78
2023/12/19 04:32:50;;;;;;;;;;;4.00;99.90;;;;;;2629894;47;19947;-78
2023/12/19 04:35:20;;;;;;;;;;;4.00;99.90;;;;;;2629744;47;19942;-79
2023/12/19 04:37:50;;;;;;;;;;;4.00;99.90;;;;;;2629615;54;20014;-79
2023/12/19 04:40:22;;;;;;;;;;;4.00;99.90;;;;;;2629360;54;20040;-79
2023/12/19 04:42:53;;;;;;;;;;;4.00;99.90;;;;;;2629600;54;20219;-79
2023/12/19 04:45:23;;;;;;;;;;;4.00;99.90;;;;;;2629692;46;19954;-79
2023/12/19 04:47:52;;;;;;;;;;;4.00;99.90;;;;;;2634401;39;20252;-79
2023/12/19 04:50:23;;;;;;;;;;;4.00;99.90;;;;;;2629819;47;19934;-79
2023/12/19 04:52:55;;;;;;;;;;;4.00;99.90;;;;;;2629971;47;20033;-79
2023/12/19 04:55:28;;;;;;;;;;;3.90;99.90;;;;;;2629449;54;19927;-78
2023/12/19 04:57:58;;;;;;;;;;;3.90;99.90;;;;;;2629371;46;19950;-79
2023/12/19 05:00:28;;;;;;;;;;;5.10;99.90;;;;;;2629527;39;20015;-79
2023/12/19 05:02:58;;;;;;;;;;;3.80;99.90;;;;;;2629169;54;19942;-80
2023/12/19 05:05:29;;;;;;;;;;;4.40;99.90;;;;;;2629573;47;20615;-79
2023/12/19 05:07:59;;;;;;;;;;;3.80;99.90;;;;;;2629476;47;19957;-80
2023/12/19 05:10:33;;;;;;;;;;;3.80;99.90;;;;;;2628426;47;19927;-78
2023/12/19 05:13:03;;;;;;;;;;;3.70;99.90;;;;;;2628582;46;20642;-78
2023/12/19 05:15:33;;;;;;;;;;;3.70;99.90;;;;;;2628160;47;19943;-79
2023/12/19 05:18:03;;;;;;;;;;;3.70;99.90;;;;;;2629417;46;19942;-81
2023/12/19 05:23:18;;;;;;;;;;;3.70;99.90;;;;;;2607611;54;21041;-80
2023/12/19 05:25:50;;;;;;;;;;;3.70;99.90;;;;;;2629283;46;19943;-81
2023/12/19 05:28:20;;;;;;;;;;;3.70;99.90;;;;;;2631223;39;20579;-80
2023/12/19 05:30:50;;;;;;;;;;;3.60;99.90;;;;;;2626836;46;19995;-81
2023/12/19 05:33:21;;;;;;;;;;;3.60;99.90;;;;;;2625867;47;19942;-80
2023/12/19 05:35:51;;;;;;;;;;;3.60;99.90;;;;;;2629213;31;20520;-80
2023/12/19 05:38:20;;;;;;;;;;;3.50;99.90;;;;;;2626399;46;19968;-81
2023/12/19 05:40:57;;;;;;;;;;;3.40;99.90;;;;;;2629542;47;19942;-85
2023/12/19 05:43:27;;;;;;;;;;;3.40;99.90;;;;;;2628605;47;19942;-81
2023/12/19 05:45:59;;;;;;;;;;;3.40;99.90;;;;;;2626673;54;19953;-78
2023/12/19 05:48:29;;;;;;;;;;;3.40;99.90;;;;;;2625023;46;19950;-80
2023/12/19 05:50:59;;;;;;;;;;;3.30;99.90;;;;;;2628446;47;19968;-85
2023/12/19 05:53:30;;;;;;;;;;;3.30;99.90;;;;;;2623303;47;19950;-76
2023/12/19 05:56:02;;;;;;;;;;;3.30;99.90;;;;;;2619315;54;21101;-78
2023/12/19 05:58:32;;;;;;;;;;;3.20;99.90;;;;;;2617367;47;19942;-75
2023/12/19 06:01:04;;;;;;;;;;;3.20;99.90;;;;;;2621366;47;19954;-77
2023/12/19 06:03:33;;;;;;;;;;;3.20;99.90;;;;;;2622482;47;20597;-78
2023/12/19 06:06:04;;;;;;;;;;;3.20;99.90;;;;;;2623012;31;20470;-76
2023/12/19 06:08:34;;;;;;;;;;;3.30;99.90;;;;;;2621754;47;20023;-77
2023/12/19 06:11:06;;;;;;;;;;;3.30;99.90;;;;;;2621435;54;19946;-77
2023/12/19 06:13:36;;;;;;;;;;;3.30;99.90;;;;;;2620593;47;19942;-77
2023/12/19 06:16:07;;;;;;;;;;;3.40;99.90;;;;;;2620888;54;19942;-78
2023/12/19 06:18:37;;;;;;;;;;;3.40;99.90;;;;;;2620385;46;19939;-78
2023/12/19 06:21:07;;;;;;;;;;;3.40;99.90;;;;;;2621996;47;19956;-81
2023/12/19 06:23:37;;;;;;;;;;;3.30;99.90;;;;;;2623672;47;19945;-77
2023/12/19 06:26:19;;;;;;;;;;;3.70;99.90;;;;;;2619423;54;20006;-79
2023/12/19 06:28:49;;;;;;;;;;;3.30;99.90;;;;;;2626517;47;20467;-76
2023/12/19 06:31:19;;;;;;;;;;;3.40;99.90;;;;;;2622405;54;20054;-81
2023/12/19 06:33:49;;;;;;;;;;;3.30;99.90;;;;;;2620420;54;19970;-80
2023/12/19 06:36:29;;;;;;;;;;;3.30;99.90;;;;;;2624421;47;19942;-78
2023/12/19 06:39:00;;;;;;;;;;;3.30;99.90;;;;;;2624538;54;19942;-79
2023/12/19 06:41:38;;;;;;;;;;;3.20;99.90;;;;;;2623695;54;19950;-82
2023/12/19 06:44:17;;;;;;;;;;;3.20;99.90;;;;;;2621697;47;19943;-80
2023/12/19 06:46:49;;;;;;;;;;;3.20;99.90;;;;;;2621970;54;20022;-78
2023/12/19 06:49:19;;;;;;;;;;;3.20;99.90;;;;;;2622087;47;19934;-79
2023/12/19 06:51:49;;;;;;;;;;;3.20;99.90;;;;;;2622780;47;19939;-80
2023/12/19 06:54:19;;;;;;;;;;;3.20;99.90;;;;;;2623555;47;19967;-79
2023/12/19 06:56:51;;;;;;;;;;;3.20;99.90;;;;;;2625310;47;19998;-80
2023/12/19 06:59:21;;;;;;;;;;;3.20;99.90;;;;;;2625229;39;20396;-80
2023/12/19 07:01:53;;;;;;;;;;;3.30;99.90;;;;;;2628497;47;19926;-82
2023/12/19 07:04:23;;;;;;;;;;;3.30;99.90;;;;;;2628919;54;19946;-81
2023/12/19 07:06:53;;;;;;;;;;;3.30;99.90;;;;;;2627806;47;19951;-87
2023/12/19 07:09:34;;;;;;;;;;;3.30;99.90;;;;;;2629750;39;20603;-80
2023/12/19 07:12:27;;;;;;;;;;;3.30;99.90;;;;;;2626458;47;19946;-82
2023/12/19 07:15:18;;;;;;;;;;;3.30;99.90;;;;;;2627082;47;20689;-80
2023/12/19 07:17:57;;;;;;;;;;;3.20;99.90;;;;;;2628002;47;19930;-79
2023/12/19 07:20:27;;;;;;;;;;;3.50;99.90;;;;;;2627143;54;19939;-77
2023/12/19 07:22:57;;;;;;;;;;;3.20;99.90;;;;;;2626678;47;19945;-81
2023/12/19 07:25:27;;;;;;;;;;;3.20;99.90;;;;;;2629162;54;19926;-79
2023/12/19 07:27:59;;;;;;;;;;;3.30;99.90;;;;;;2626874;47;19947;-79
2023/12/19 07:30:29;;;;;;;;;;;3.30;99.90;;;;;;2627195;47;19938;-80
2023/12/19 07:33:00;;;;;;;;;;;3.30;99.90;;;;;;2628587;47;20043;-84
2023/12/19 07:35:30;;;;;;;;;;;3.30;99.90;;;;;;2631212;39;20466;-80
2023/12/19 07:38:02;;;;;;;;;;;3.40;99.90;;;;;;2629181;39;20446;-81
2023/12/19 07:40:33;;;;;;;;;;;3.50;99.90;;;;;;2627673;47;19935;-82
2023/12/19 07:43:06;;;;;;;;;;;3.60;99.90;;;;;;2628488;47;19950;-85
2023/12/19 07:45:36;;;;;;;;;;;3.60;99.90;;;;;;2627954;47;19947;-83
2023/12/19 07:48:06;;;;;;;;;;;3.70;99.90;;;;;;2626344;47;19973;-82
2023/12/19 07:50:38;;;;;;;;;;;3.70;99.90;;;;;;2626580;47;19947;-84
2023/12/19 07:53:08;;;;;;;;;;;3.80;99.90;;;;;;2626014;47;19927;-82
2023/12/19 07:55:37;;;;;;;;;;;4.00;99.90;;;;;;2627796;47;20622;-80
2023/12/19 07:58:12;;;;;;;;;;;3.90;99.90;;;;;;2626675;54;19939;-80
2023/12/19 08:00:41;;;;;;;;;;;3.90;99.90;;;;;;2629222;47;19927;-80
2023/12/19 08:03:12;;;;;;;;;;;3.90;99.90;;;;;;2622251;47;21667;-74
2023/12/19 08:05:45;;;;;;;;;;;3.90;99.90;;;;;;2625257;54;20015;-75
2023/12/19 08:08:15;;;;;;;;;;;3.90;99.90;;;;;;2620308;47;19950;-73
2023/12/19 08:10:45;;;;;;;;;;;3.90;99.90;;;;;;2616025;54;19934;-74
2023/12/19 08:13:20;;;;;;;;;;;4.00;99.90;;;;;;2617652;39;20374;-74
2023/12/19 08:15:50;;;;;;;;;;;4.00;99.90;;;;;;2617913;54;19955;-74
2023/12/19 08:18:20;;;;;;;;;;;3.90;99.90;;;;;;2620129;47;19946;-74
2023/12/19 08:20:49;;;;;;;;;;;4.00;99.90;;;;;;2617466;47;20082;-75
2023/12/19 08:23:19;;;;;;;;;;;3.90;99.90;;;;;;2618762;39;20325;-74
2023/12/19 08:25:49;;;;;;;;;;;3.80;99.90;;;;;;2618354;54;19947;-73
2023/12/19 08:28:21;;;;;;;;;;;3.80;99.90;;;;;;2619506;54;19954;-74
2023/12/19 08:30:51;;;;;;;;;;;3.80;99.90;;;;;;2616873;47;20053;-74
2023/12/19 08:33:21;;;;;;;;;;;3.80;99.90;;;;;;2618915;47;20640;-74
2023/12/19 08:35:52;;;;;;;;;;;3.80;99.90;;;;;;2618763;46;20022;-75
2023/12/19 08:38:22;;;;;;;;;;;4.40;99.90;;;;;;2619450;54;19938;-74
2023/12/19 08:40:52;;;;;;;;;;;3.80;99.90;;;;;;2617617;47;19947;-73
2023/12/19 08:43:24;;;;;;;;;;;3.70;99.90;;;;;;2618933;47;19942;-74
2023/12/19 08:45:54;;;;;;;;;;;3.80;99.90;;;;;;2618927;39;20359;-74
2023/12/19 08:48:24;;;;;;;;;;;3.80;99.90;;;;;;2618745;47;19954;-75
2023/12/19 08:50:54;;;;;;;;;;;3.70;99.90;;;;;;2619598;46;19950;-73
2023/12/19 08:53:23;;;;;;;;;;;4.00;99.90;;;;;;2621594;47;19982;-75
2023/12/19 08:55:53;;;;;;;;;;;3.70;99.90;;;;;;2617827;47;19946;-75
2023/12/19 08:58:25;;;;;;;;;;;3.70;99.90;;;;;;2620199;47;19948;-74
2023/12/19 09:00:55;;;;;;;;;;;3.70;99.90;;;;;;2617382;47;20059;-74
2023/12/19 09:03:25;;;;;;;;;;;3.60;99.90;;;;;;2617857;39;20416;-74
2023/12/19 09:05:55;;;;;;;;;;;3.70;99.90;;;;;;2618318;47;20041;-76
2023/12/19 09:08:26;;;;;;;;;;;3.70;99.90;;;;;;2618982;47;19939;-73
2023/12/19 09:10:55;;;;;;;;;;;3.70;99.90;;;;;;2617795;50;19946;-74
2023/12/19 09:13:28;;;;;;;;;;;3.70;99.90;;;;;;2618595;47;20453;-74
2023/12/19 09:16:00;;;;;;;;;;;3.70;99.90;;;;;;2619935;54;19946;-74
2023/12/19 09:18:30;;;;;;;;;;;3.70;99.90;;;;;;2619507;54;19942;-74
2023/12/19 09:21:00;;;;;;;;;;;3.80;99.90;;;;;;2619212;47;19945;-75
2023/12/19 09:23:30;;;;;;;;;;;3.70;99.90;;;;;;2619789;47;19943;-75
2023/12/19 09:26:00;;;;;;;;;;;3.80;99.90;;;;;;2617622;54;20488;-77
2023/12/19 09:28:32;;;;;;;;;;;3.90;99.90;;;;;;2618688;47;19954;-75
2023/12/19 09:31:02;;;;;;;;;;;3.90;99.90;;;;;;2619448;54;20046;-74
2023/12/19 09:33:31;;;;;;;;;;;3.90;99.90;;;;;;2619811;39;20002;-73
2023/12/19 09:36:01;;;;;;;;;;;3.90;99.90;;;;;;2620227;54;19957;-75
2023/12/19 09:38:31;;;;;;;;;;;3.90;99.90;;;;;;2620813;54;20032;-74
2023/12/19 09:41:01;;;;;;;;;;;4.20;99.90;;;;;;2619266;46;19961;-75
2023/12/19 09:43:33;;;;;;;;;;;3.90;99.90;;;;;;2621142;54;20460;-75
2023/12/19 09:46:04;;;;;;;;;;;4.00;99.90;;;;;;2619619;54;19935;-75
2023/12/19 09:48:35;;;;;;;;;;;4.00;99.90;;;;;;2619522;54;19950;-76
2023/12/19 09:51:13;;;;;;;;;;;4.00;99.90;;;;;;2619392;47;19986;-75
2023/12/19 09:53:43;;;;;;;;;;;4.00;99.90;;;;;;2620379;39;20401;-78
2023/12/19 09:56:13;;;;;;;;;;;4.70;99.90;;;;;;2623931;47;20033;-74
2023/12/19 09:58:47;;;;;;;;;;;4.20;99.90;;;;;;2629853;47;19974;-76
2023/12/19 10:01:18;;;;;;;;;;;4.00;99.90;;;;;;2622346;47;19951;-73
2023/12/19 10:03:49;;;;;;;;;;;4.10;99.90;;;;;;2619181;47;20054;-72
2023/12/19 10:06:19;;;;;;;;;;;4.00;99.90;;;;;;2619466;47;19939;-74
2023/12/19 10:08:50;;;;;;;;;;;4.00;99.90;;;;;;2617811;47;19939;-76
2023/12/19 10:11:21;;;;;;;;;;;4.10;99.90;;;;;;2617638;47;19947;-75
2023/12/19 10:13:54;;;;;;;;;;;4.10;99.90;;;;;;2617616;47;19953;-75
2023/12/19 10:16:24;;;;;;;;;;;4.20;99.90;;;;;;2618393;47;19954;-74
2023/12/19 10:19:02;;;;;;;;;;;4.20;99.90;;;;;;2618519;47;19961;-75
2023/12/19 10:21:33;;;;;;;;;;;4.40;99.90;;;;;;2619052;54;19938;-75
2023/12/19 10:24:11;;;;;;;;;;;4.20;99.90;;;;;;2614912;47;19947;-61
2023/12/19 10:26:42;;;;;;;;;;;4.20;99.90;;;;;;2615845;54;20464;-61
2023/12/19 10:29:24;;;;;;;;;;;4.30;99.90;;;;;;2615876;47;19946;-61
2023/12/19 10:31:54;;;;;;;;;;;4.30;99.90;;;;;;2616224;47;20450;-61
2023/12/19 10:34:25;;;;;;;;;;;4.40;99.90;;;;;;2615885;54;19998;-62
2023/12/19 10:36:54;;;;;;;;;;;4.50;99.90;;;;;;2616456;49;19954;-61
2023/12/19 10:39:24;;;;;;;;;;;4.50;99.90;;;;;;2615002;47;19946;-60
2023/12/19 10:42:03;;;;;;;;;;;4.70;99.90;;;;;;2617485;47;19990;-73
2023/12/19 10:44:35;;;;;;;;;;;4.60;99.90;;;;;;2617577;47;20681;-72
2023/12/19 10:47:05;;;;;;;;;;;4.60;99.90;;;;;;2616707;54;19946;-74
2023/12/19 10:49:35;;;;;;;;;;;4.60;99.90;;;;;;2617732;53;19938;-72
2023/12/19 10:52:07;;;;;;;;;;;4.60;99.90;;;;;;2618140;47;19947;-72
2023/12/19 10:54:39;;;;;;;;;;;4.60;99.90;;;;;;2617089;47;19950;-73
2023/12/19 10:57:17;;;;;;;;;;;4.60;99.90;;;;;;2617460;54;19978;-72
2023/12/19 10:59:54;;;;;;;;;;;4.60;99.90;;;;;;2617318;47;19954;-73
2023/12/19 11:02:35;;;;;;;;;;;4.60;99.90;;;;;;2617306;47;19938;-73
2023/12/19 11:05:11;;;;;;;;;;;4.60;99.90;;;;;;2617360;48;20446;-72
2023/12/19 11:07:44;;;;;;;;;;;4.50;99.90;;;;;;2617322;54;19947;-71
2023/12/19 11:10:14;;;;;;;;;;;4.50;99.90;;;;;;2616803;54;19938;-71
2023/12/19 17:24:24;;;;;;;;;;;4.60;99.90;;;;;;2596732;54;21177;-75
2023/12/19 17:27:05;;;;;;;;;;;6.70;99.90;;;;;;2601303;47;20477;-76
2023/12/19 17:29:34;;;;;;;;;;;5.60;99.90;;;;;;2602862;54;19950;-75
2023/12/19 17:32:04;;;;;;;;;;;5.50;99.90;;;;;;2608984;47;20449;-75
2023/12/19 17:34:34;;;;;;;;;;;5.60;99.90;;;;;;2601004;47;19953;-76
2023/12/19 17:37:04;;;;;;;;;;;5.50;99.90;;;;;;2600713;47;20395;-74
2023/12/19 17:39:36;;;;;;;;;;;5.50;99.90;;;;;;2598460;47;19951;-75
2023/12/19 17:42:06;;;;;;;;;;;5.70;99.90;;;;;;2598960;46;22501;-73
2023/12/19 17:44:36;;;;;;;;;;;5.50;99.90;;;;;;2597536;46;19962;-74
2023/12/19 17:47:06;;;;;;;;;;;5.50;99.90;;;;;;2599276;47;20040;-74
2023/12/19 17:49:36;;;;;;;;;;;5.50;99.90;;;;;;2598138;47;19973;-74
2023/12/19 17:52:07;;;;;;;;;;;5.50;99.90;;;;;;2599653;47;19985;-73
2023/12/19 17:54:40;;;;;;;;;;;5.60;99.90;;;;;;2599520;54;20631;-72
2023/12/19 17:57:10;;;;;;;;;;;5.60;99.90;;;;;;2599051;47;19954;-74
2023/12/19 17:59:40;;;;;;;;;;;5.50;99.90;;;;;;2598818;46;19950;-72
2023/12/19 18:02:10;;;;;;;;;;;5.50;99.90;;;;;;2600167;39;20580;-74
2023/12/19 18:04:40;;;;;;;;;;;5.50;99.90;;;;;;2598990;47;19966;-73
2023/12/19 18:07:10;;;;;;;;;;;5.50;99.90;;;;;;2598527;47;19946;-74
2023/12/19 18:09:42;;;;;;;;;;;5.50;99.90;;;;;;2598781;47;19946;-74
2023/12/19 18:12:13;;;;;;;;;;;5.50;99.90;;;;;;2599687;47;19947;-74
2023/12/19 18:14:43;;;;;;;;;;;6.10;99.90;;;;;;2602052;47;19950;-75
2023/12/19 18:17:13;;;;;;;;;;;5.60;99.90;;;;;;2603147;47;19954;-74
2023/12/19 18:19:42;;;;;;;;;;;5.60;99.90;;;;;;2600844;47;19978;-75
2023/12/19 18:22:13;;;;;;;;;;;5.60;99.90;;;;;;2599991;39;20350;-74
2023/12/19 18:24:45;;;;;;;;;;;5.50;99.90;;;;;;2599391;54;19958;-74
2023/12/19 18:27:15;;;;;;;;;;;5.60;99.90;;;;;;2599394;47;19950;-73
2023/12/19 18:29:44;;;;;;;;;;;5.60;99.90;;;;;;2597980;54;19954;-74
2023/12/19 18:32:14;;;;;;;;;;;5.60;99.90;;;;;;2599864;54;19982;-73
2023/12/19 18:34:45;;;;;;;;;;;5.60;99.90;;;;;;2598387;54;20461;-74
2023/12/19 18:37:15;;;;;;;;;;;5.60;99.90;;;;;;2597196;47;19991;-74
2023/12/19 18:39:47;;;;;;;;;;;5.60;99.90;;;;;;2597387;47;20343;-73
2023/12/19 18:42:17;;;;;;;;;;;5.60;99.90;;;;;;2599399;47;19951;-74
2023/12/19 18:44:46;;;;;;;;;;;5.60;99.90;;;;;;2597854;47;19950;-73
2023/12/19 18:47:16;;;;;;;;;;;5.60;99.90;;;;;;2598205;47;19958;-73
2023/12/19 18:49:46;;;;;;;;;;;5.50;99.90;;;;;;2596356;46;19978;-73
2023/12/19 18:52:15;;;;;;;;;;;5.60;99.90;;;;;;2597601;47;19950;-72
2023/12/19 18:54:48;;;;;;;;;;;5.60;99.90;;;;;;2598244;47;19949;-72
2023/12/19 18:57:18;;;;;;;;;;;5.60;99.90;;;;;;2599385;47;19954;-73
2023/12/19 18:59:48;;;;;;;;;;;5.60;99.90;;;;;;2598405;47;20458;-74
2023/12/19 19:02:18;;;;;;;;;;;6.70;99.90;;;;;;2600349;39;20366;-74
2023/12/19 19:04:48;;;;;;;;;;;5.00;99.90;;;;;;2598226;50;19951;-74
2023/12/19 19:07:18;;;;;;;;;;;5.60;99.90;;;;;;2597921;47;19978;-73
2023/12/19 19:09:50;;;;;;;;;;;5.70;99.90;;;;;;2599395;39;20405;-78
2023/12/19 19:12:20;;;;;;;;;;;5.70;99.90;;;;;;2598945;54;19981;-74
2023/12/19 19:14:50;;;;;;;;;;;5.70;99.90;;;;;;2598452;54;19951;-75
2023/12/19 19:17:22;;;;;;;;;;;5.70;99.90;;;;;;2603321;39;20724;-74
2023/12/19 19:19:52;;;;;;;;;;;5.70;99.90;;;;;;2607317;47;19950;-73
2023/12/19 19:22:22;;;;;;;;;;;5.70;99.90;;;;;;2600954;47;20528;-74
2023/12/19 19:24:55;;;;;;;;;;;5.70;99.90;;;;;;2597568;47;19955;-72
2023/12/19 19:27:25;;;;;;;;;;;5.70;99.90;;;;;;2597883;54;19955;-77
2023/12/19 19:29:54;;;;;;;;;;;5.70;99.90;;;;;;2599819;54;19950;-77
2023/12/19 19:32:24;;;;;;;;;;;5.70;99.90;;;;;;2602041;54;19985;-75
2023/12/19 19:34:54;;;;;;;;;;;5.70;99.90;;;;;;2599887;54;19946;-75
2023/12/19 19:37:28;;;;;;;;;;;5.80;99.90;;;;;;2599576;54;19947;-74
2023/12/19 19:40:00;;;;;;;;;;;5.80;99.90;;;;;;2604495;47;19946;-74
2023/12/19 19:42:30;;;;;;;;;;;5.80;99.90;;;;;;2615630;54;20456;-75
2023/12/19 19:45:00;;;;;;;;;;;5.90;99.90;;;;;;2617003;54;19919;-76
2023/12/19 19:47:30;;;;;;;;;;;5.90;99.90;;;;;;2617405;49;19946;-73
2023/12/19 19:49:59;;;;;;;;;;;5.90;99.90;;;;;;2615451;47;19954;-74
2023/12/19 19:52:29;;;;;;;;;;;5.90;99.90;;;;;;2617784;47;19939;-75
2023/12/19 19:55:02;;;;;;;;;;;5.90;99.90;;;;;;2618062;54;19946;-74
2023/12/19 19:57:36;;;;;;;;;;;5.90;99.90;;;;;;2617402;47;19966;-74
2023/12/19 20:00:06;;;;;;;;;;;5.90;99.90;;;;;;2618017;47;19998;-76
2023/12/19 20:02:36;;;;;;;;;;;5.90;99.90;;;;;;2616391;47;19946;-75
2023/12/19 20:05:07;;;;;;;;;;;5.90;99.90;;;;;;2616196;47;19943;-75
2023/12/19 20:07:36;;;;;;;;;;;5.90;99.90;;;;;;2616638;39;20349;-74
2023/12/19 20:10:09;;;;;;;;;;;5.90;99.90;;;;;;2617698;39;20345;-74
2023/12/19 20:12:39;;;;;;;;;;;5.90;99.90;;;;;;2616660;47;19950;-74
2023/12/19 20:15:09;;;;;;;;;;;5.90;99.90;;;;;;2616074;47;19949;-72
2023/12/19 20:17:40;;;;;;;;;;;5.90;99.90;;;;;;2615352;39;20373;-72
2023/12/19 20:20:10;;;;;;;;;;;6.00;99.90;;;;;;2615986;54;19946;-73
2023/12/19 20:22:40;;;;;;;;;;;5.90;99.90;;;;;;2614481;47;19950;-73
2023/12/19 20:25:13;;;;;;;;;;;5.90;99.90;;;;;;2617686;39;20369;-72
2023/12/19 20:27:43;;;;;;;;;;;5.90;99.90;;;;;;2617469;47;19947;-73
2023/12/19 20:30:13;;;;;;;;;;;5.90;99.90;;;;;;2617015;47;20038;-74
2023/12/19 20:32:43;;;;;;;;;;;5.90;99.90;;;;;;2615655;47;19960;-74
2023/12/19 20:35:14;;;;;;;;;;;5.90;99.90;;;;;;2618247;39;20374;-74
2023/12/19 20:37:44;;;;;;;;;;;5.90;99.90;;;;;;2617084;54;19958;-73
2023/12/19 20:40:17;;;;;;;;;;;5.90;99.90;;;;;;2616430;47;19974;-74
2023/12/19 20:42:47;;;;;;;;;;;5.90;99.90;;;;;;2616603;54;19946;-76
2023/12/19 20:45:18;;;;;;;;;;;6.00;99.90;;;;;;2615788;47;20746;-75
2023/12/19 20:47:47;;;;;;;;;;;5.90;99.90;;;;;;2616119;47;19939;-75
2023/12/19 20:50:18;;;;;;;;;;;5.90;99.90;;;;;;2616807;54;19950;-76
2023/12/19 20:52:48;;;;;;;;;;;5.90;99.90;;;;;;2614568;54;20057;-72
2023/12/19 20:55:28;;;;;;;;;;;6.10;99.90;;;;;;2613588;54;19990;-75
2023/12/19 20:57:58;;;;;;;;;;;5.90;99.90;;;;;;2616013;47;19950;-75
2023/12/19 21:00:28;;;;;;;;;;;5.90;99.90;;;;;;2616981;54;20067;-75
2023/12/19 21:02:58;;;;;;;;;;;5.90;99.90;;;;;;2617149;54;19946;-75
2023/12/19 21:05:28;;;;;;;;;;;5.80;99.90;;;;;;2621754;49;19950;-72
2023/12/19 21:07:58;;;;;;;;;;;5.80;99.90;;;;;;2618827;47;20474;-75